Time;durP1;ratioP1;P1;durP2;ratioP2;P2;SDS_P1;SDS_P2;PMS_P1;PMS_P2;Temp;Humidity;BMP_temperature;BMP_pressure;BME280_temperature;BME280_humidity;BME280_pressure;Samples;Min_cycle;Max_cycle;Signal;HPM_P1;HPM_P2
2023/02/23 00:01:20;;;;;;;14.23;4.70;;;7.90;98.00;;;;;;5032637;28;20451;-67
2023/02/23 00:03:50;;;;;;;11.50;4.53;;;7.90;98.00;;;;;;5033590;28;20516;-66
2023/02/23 00:06:18;;;;;;;15.60;5.47;;;7.80;98.00;;;;;;5033561;28;20859;-67
2023/02/23 00:08:46;;;;;;;16.30;6.07;;;8.00;98.00;;;;;;5016050;28;20553;-67
2023/02/23 00:11:15;;;;;;;11.40;5.10;;;8.10;98.00;;;;;;5033509;28;20495;-67
2023/02/23 00:13:45;;;;;;;14.83;5.97;;;8.20;98.00;;;;;;5015691;28;20489;-66
2023/02/23 00:16:14;;;;;;;9.73;5.10;;;8.20;98.00;;;;;;5033372;28;20459;-66
2023/02/23 00:18:47;;;;;;;10.33;5.10;;;8.30;98.00;;;;;;5033300;28;20459;-67
2023/02/23 00:21:31;;;;;;;10.70;5.20;;;8.30;98.00;;;;;;5033131;28;20475;-67
2023/02/23 00:24:01;;;;;;;21.23;5.10;;;8.40;98.00;;;;;;5033192;28;20550;-66
2023/02/23 00:26:33;;;;;;;13.77;5.87;;;8.50;98.00;;;;;;5033165;28;20459;-67
2023/02/23 00:29:01;;;;;;;12.70;4.70;;;8.70;98.00;;;;;;5033110;28;20455;-67
2023/02/23 00:31:29;;;;;;;12.30;4.60;;;8.60;98.00;;;;;;5033046;28;20854;-67
2023/02/23 00:33:58;;;;;;;14.83;5.83;;;8.50;98.00;;;;;;5032905;28;20486;-67
2023/02/23 00:36:36;;;;;;;10.40;4.70;;;8.40;98.00;;;;;;5033249;28;20463;-67
2023/02/23 00:39:16;;;;;;;8.47;4.20;;;8.40;98.00;;;;;;5444249;22;20447;-70
2023/02/23 00:41:46;;;;;;;12.37;5.03;;;8.30;98.00;;;;;;5073077;28;20546;-70
2023/02/23 00:44:14;;;;;;;13.70;5.10;;;8.30;98.00;;;;;;5072994;28;20496;-69
2023/02/23 00:46:42;;;;;;;8.40;4.20;;;8.30;98.00;;;;;;5073024;28;20503;-70
2023/02/23 00:49:11;;;;;;;19.67;6.40;;;8.40;98.00;;;;;;5072811;28;20457;-69
2023/02/23 00:51:40;;;;;;;15.57;5.67;;;8.40;98.00;;;;;;5072737;28;20508;-69
2023/02/23 00:54:07;;;;;;;11.70;4.50;;;8.40;98.00;;;;;;5072478;28;20568;-70
2023/02/23 00:56:36;;;;;;;10.43;4.70;;;8.40;98.00;;;;;;5072463;28;20453;-69
2023/02/23 00:59:03;;;;;;;9.90;4.70;;;8.40;98.00;;;;;;5072819;28;20817;-70
2023/02/23 01:01:30;;;;;;;13.40;5.00;;;8.40;98.00;;;;;;5072369;28;20458;-69
2023/02/23 01:03:58;;;;;;;11.90;5.27;;;8.40;98.00;;;;;;5072627;28;20514;-69
2023/02/23 01:06:25;;;;;;;12.80;4.50;;;8.60;98.00;;;;;;5072294;28;20496;-69
2023/02/23 01:08:55;;;;;;;12.43;4.83;;;8.60;98.00;;;;;;5072180;28;20457;-70
2023/02/23 01:11:26;;;;;;;11.37;5.70;;;8.50;98.00;;;;;;5071786;28;20566;-70
2023/02/23 01:13:55;;;;;;;15.47;4.63;;;8.40;98.00;;;;;;5072056;28;20514;-69
2023/02/23 01:16:26;;;;;;;8.50;4.47;;;8.50;98.00;;;;;;5072134;28;20857;-69
2023/02/23 01:18:55;;;;;;;13.47;5.40;;;8.70;98.00;;;;;;5072295;28;20893;-70
2023/02/23 01:21:24;;;;;;;12.20;5.10;;;8.70;98.00;;;;;;5071999;28;20468;-69
2023/02/23 01:23:53;;;;;;;11.50;4.80;;;8.60;98.00;;;;;;5071983;28;20673;-69
2023/02/23 01:26:23;;;;;;;10.17;5.00;;;8.50;98.00;;;;;;5071962;28;20464;-70
2023/02/23 01:28:54;;;;;;;13.90;5.70;;;8.40;98.00;;;;;;5071923;28;20992;-70
2023/02/23 01:31:23;;;;;;;11.37;5.33;;;8.30;98.00;;;;;;5071982;28;20494;-69
2023/02/23 01:33:54;;;;;;;8.93;4.60;;;8.40;98.00;;;;;;5071782;28;20485;-70
2023/02/23 01:36:21;;;;;;;10.40;5.63;;;8.30;98.00;;;;;;5071874;28;20464;-69
2023/02/23 01:38:49;;;;;;;14.93;5.30;;;8.40;98.00;;;;;;5071764;28;20463;-70
2023/02/23 01:41:19;;;;;;;10.97;4.90;;;8.50;98.00;;;;;;5071969;28;20497;-70
2023/02/23 01:43:57;;;;;;;8.17;4.40;;;8.60;98.00;;;;;;5071825;28;21058;-70
2023/02/23 01:46:26;;;;;;;14.33;5.33;;;8.50;98.00;;;;;;5071580;28;20465;-69
2023/02/23 01:48:56;;;;;;;8.67;4.30;;;8.50;98.00;;;;;;5071464;28;20437;-70
2023/02/23 01:51:29;;;;;;;8.27;4.87;;;8.50;98.00;;;;;;5071631;28;20784;-70
2023/02/23 01:54:00;;;;;;;8.30;4.67;;;8.50;98.00;;;;;;5071843;28;20488;-70
2023/02/23 01:56:32;;;;;;;10.67;5.30;;;8.50;98.00;;;;;;5071925;28;20492;-70
2023/02/23 01:59:06;;;;;;;11.20;4.57;;;8.50;98.00;;;;;;5071580;28;20460;-70
2023/02/23 02:01:33;;;;;;;11.30;4.87;;;8.50;98.00;;;;;;5072058;28;20462;-70
2023/02/23 02:04:05;;;;;;;9.20;4.70;;;8.50;98.00;;;;;;5072371;28;20456;-70
2023/02/23 02:06:33;;;;;;;9.50;4.50;;;8.50;98.00;;;;;;5082804;28;20493;-70
2023/02/23 02:09:05;;;;;;;9.07;5.13;;;8.40;98.00;;;;;;5092487;28;20457;-69
2023/02/23 02:11:36;;;;;;;11.30;4.83;;;8.40;98.00;;;;;;5091722;28;20465;-70
2023/02/23 02:14:17;;;;;;;13.00;5.60;;;8.30;98.00;;;;;;5091346;28;20482;-70
2023/02/23 02:17:06;;;;;;;11.40;5.03;;;8.20;98.00;;;;;;5091490;28;20956;-69
2023/02/23 02:20:25;;;;;;;11.83;5.03;;;8.30;98.00;;;;;;5091511;28;20463;-69
2023/02/23 02:23:20;;;;;;;9.73;4.80;;;8.30;98.00;;;;;;5090454;28;20970;-70
2023/02/23 02:25:56;;;;;;;14.47;5.20;;;8.30;98.00;;;;;;5084613;28;20463;-70
2023/02/23 02:28:48;;;;;;;8.77;4.70;;;8.40;98.00;;;;;;5091295;28;20462;-69
2023/02/23 02:31:48;;;;;;;7.97;3.80;;;8.40;98.00;;;;;;5091356;28;20462;-70
2023/02/23 02:34:47;;;;;;;14.47;5.20;;;8.50;98.00;;;;;;5091131;28;20540;-70
2023/02/23 02:37:39;;;;;;;10.83;4.83;;;8.50;98.00;;;;;;5075627;28;20459;-70
2023/02/23 02:40:16;;;;;;;11.60;5.20;;;8.60;98.00;;;;;;5091438;28;20545;-69
2023/02/23 02:42:55;;;;;;;12.43;4.70;;;8.60;98.00;;;;;;5091413;28;20460;-69
2023/02/23 02:45:27;;;;;;;14.30;5.80;;;8.60;98.00;;;;;;5091612;28;20548;-70
2023/02/23 02:47:58;;;;;;;13.30;5.20;;;8.40;98.00;;;;;;5091175;28;20507;-69
2023/02/23 02:50:34;;;;;;;7.33;4.63;;;8.40;98.00;;;;;;5073041;28;20457;-69
2023/02/23 02:53:08;;;;;;;11.97;4.27;;;8.30;98.00;;;;;;5091004;28;20467;-69
2023/02/23 02:55:42;;;;;;;13.67;4.93;;;8.20;98.00;;;;;;5091069;28;20457;-69
2023/02/23 02:58:12;;;;;;;9.73;4.37;;;8.10;98.00;;;;;;5091162;28;20459;-70
2023/02/23 04:19:31;;;;;;;8.00;4.33;;;8.20;98.00;;;;;;5093568;28;20428;-69
2023/02/23 04:21:58;;;;;;;7.13;4.43;;;8.30;98.00;;;;;;5093931;28;20458;-70
2023/02/23 04:24:25;;;;;;;11.40;5.33;;;8.30;98.00;;;;;;5093489;28;20459;-70
2023/02/23 04:26:52;;;;;;;6.73;3.60;;;8.20;98.00;;;;;;5093414;28;20855;-70
2023/02/23 04:29:21;;;;;;;8.17;4.40;;;8.20;98.00;;;;;;5093348;28;20453;-70
2023/02/23 04:31:48;;;;;;;9.43;4.10;;;8.20;98.00;;;;;;5093574;28;20826;-69
2023/02/23 04:34:17;;;;;;;9.67;4.90;;;8.20;98.00;;;;;;5093221;28;20570;-70
2023/02/23 04:36:44;;;;;;;8.33;4.10;;;8.20;98.00;;;;;;5093605;28;20451;-69
2023/02/23 04:39:11;;;;;;;11.03;4.80;;;8.20;98.00;;;;;;5093312;28;20514;-70
2023/02/23 04:41:38;;;;;;;10.00;4.30;;;8.20;98.00;;;;;;5093366;28;20452;-69
2023/02/23 04:44:05;;;;;;;11.63;5.70;;;8.20;98.00;;;;;;5093117;28;20968;-69
2023/02/23 04:46:32;;;;;;;9.40;5.13;;;8.10;98.00;;;;;;5092307;28;20635;-70
2023/02/23 04:49:00;;;;;;;10.30;4.10;;;8.10;98.00;;;;;;5093137;28;20450;-69
2023/02/23 04:51:31;;;;;;;9.93;4.20;;;8.10;98.00;;;;;;5093077;28;20490;-69
2023/02/23 04:54:00;;;;;;;9.67;4.13;;;8.10;98.00;;;;;;5092900;28;20488;-70
2023/02/23 04:56:30;;;;;;;8.53;4.20;;;8.20;98.00;;;;;;5093070;28;20444;-69
2023/02/23 04:58:57;;;;;;;12.00;4.80;;;8.30;98.00;;;;;;5092991;28;20466;-69
2023/02/23 05:01:26;;;;;;;11.27;4.40;;;8.20;98.00;;;;;;5074310;28;20459;-69
2023/02/23 05:03:53;;;;;;;7.30;4.50;;;8.20;98.00;;;;;;5092803;28;20507;-69
2023/02/23 05:06:20;;;;;;;8.30;4.23;;;8.20;98.00;;;;;;5092718;28;20453;-69
2023/02/23 05:08:50;;;;;;;9.33;4.83;;;8.20;98.00;;;;;;5092896;28;20499;-70
2023/02/23 05:11:17;;;;;;;10.03;4.73;;;8.30;98.00;;;;;;5092842;28;20502;-69
2023/02/23 05:13:45;;;;;;;7.80;3.43;;;8.30;98.00;;;;;;5092810;28;20806;-69
2023/02/23 05:16:12;;;;;;;11.57;4.70;;;8.10;98.00;;;;;;5090469;28;20457;-69
2023/02/23 05:18:39;;;;;;;11.63;5.33;;;8.00;98.00;;;;;;5092488;28;20452;-69
2023/02/23 05:21:08;;;;;;;9.17;4.40;;;8.00;98.00;;;;;;5092375;28;20448;-70
2023/02/23 05:23:37;;;;;;;8.57;4.20;;;8.00;98.00;;;;;;5092401;28;20460;-70
2023/02/23 05:26:08;;;;;;;13.53;5.23;;;8.00;98.00;;;;;;5092528;28;20458;-69
2023/02/23 05:28:36;;;;;;;8.23;4.40;;;8.10;98.00;;;;;;5092323;28;20456;-69
2023/02/23 05:31:05;;;;;;;8.73;4.97;;;8.10;98.00;;;;;;5092622;28;20459;-69
2023/02/23 05:33:33;;;;;;;9.47;4.70;;;8.10;98.00;;;;;;5092079;28;20454;-69
2023/02/23 05:36:05;;;;;;;9.33;4.50;;;8.10;98.00;;;;;;5092516;28;20960;-70
2023/02/23 05:38:33;;;;;;;14.47;4.60;;;8.10;98.00;;;;;;5092216;28;20460;-70
2023/02/23 05:41:04;;;;;;;10.13;5.43;;;8.10;98.00;;;;;;5092086;28;20500;-70
2023/02/23 05:43:32;;;;;;;11.93;4.70;;;8.00;98.00;;;;;;5091967;28;20461;-70
2023/02/23 05:46:00;;;;;;;8.63;5.10;;;8.10;98.00;;;;;;5092134;28;20516;-69
2023/02/23 05:48:27;;;;;;;15.80;4.70;;;8.10;98.00;;;;;;5091829;28;20454;-69
2023/02/23 05:50:54;;;;;;;11.00;4.23;;;8.20;98.00;;;;;;5091800;28;20465;-70
2023/02/23 05:53:21;;;;;;;8.03;5.20;;;8.30;98.00;;;;;;5092142;28;20809;-69
2023/02/23 05:55:48;;;;;;;7.97;4.90;;;8.30;98.00;;;;;;5091546;28;20579;-69
2023/02/23 05:58:16;;;;;;;11.47;4.70;;;8.30;98.00;;;;;;5091625;28;20459;-70
2023/02/23 06:00:47;;;;;;;16.90;5.90;;;8.30;98.00;;;;;;5091780;28;20467;-69
2023/02/23 06:03:14;;;;;;;12.77;4.43;;;8.20;98.00;;;;;;5091553;28;20464;-70
2023/02/23 06:05:42;;;;;;;11.30;4.70;;;8.10;98.00;;;;;;5091922;28;20459;-70
2023/02/23 06:08:09;;;;;;;8.13;5.57;;;8.00;98.00;;;;;;5091446;28;20961;-69
2023/02/23 06:10:36;;;;;;;8.07;3.70;;;8.00;98.00;;;;;;5091869;28;20796;-70
2023/02/23 06:13:03;;;;;;;8.97;4.67;;;7.90;98.00;;;;;;5091699;28;20465;-70
2023/02/23 06:15:30;;;;;;;8.60;5.03;;;7.90;98.00;;;;;;5091585;28;20491;-69
2023/02/23 06:17:59;;;;;;;11.13;4.50;;;7.90;98.00;;;;;;5091366;28;20487;-70
2023/02/23 06:20:27;;;;;;;11.07;4.10;;;7.90;98.00;;;;;;5073798;28;20455;-70
2023/02/23 06:22:54;;;;;;;15.37;5.37;;;7.80;98.00;;;;;;5091889;28;20825;-69
2023/02/23 06:25:21;;;;;;;7.67;3.77;;;7.80;98.00;;;;;;5091748;28;20479;-69
2023/02/23 06:27:48;;;;;;;8.70;4.10;;;7.80;98.00;;;;;;5091717;28;20516;-69
2023/02/23 06:30:16;;;;;;;14.67;5.67;;;7.90;98.00;;;;;;5073391;28;20454;-69
2023/02/23 06:32:43;;;;;;;13.60;4.20;;;8.00;98.00;;;;;;5091378;28;20825;-70
2023/02/23 06:35:12;;;;;;;11.47;4.30;;;8.00;98.00;;;;;;5091108;28;20492;-70
2023/02/23 06:37:39;;;;;;;21.60;4.50;;;8.00;98.00;;;;;;5091328;28;20467;-70
2023/02/23 06:40:07;;;;;;;8.83;4.30;;;8.10;98.00;;;;;;5091071;28;20846;-69
2023/02/23 06:42:35;;;;;;;12.37;5.10;;;8.10;98.00;;;;;;5090970;28;20955;-70
2023/02/23 06:45:02;;;;;;;12.67;4.97;;;8.20;98.00;;;;;;5091175;28;20534;-69
2023/02/23 06:47:29;;;;;;;14.17;5.10;;;8.20;98.00;;;;;;5091156;28;20470;-69
2023/02/23 06:49:58;;;;;;;11.90;4.50;;;8.20;98.00;;;;;;5091116;28;20457;-69
2023/02/23 06:52:27;;;;;;;11.67;4.60;;;8.20;98.00;;;;;;5091006;28;20511;-70
2023/02/23 06:54:54;;;;;;;11.53;5.47;;;8.20;98.00;;;;;;5090989;28;20516;-70
2023/02/23 06:57:21;;;;;;;14.80;6.40;;;8.10;98.00;;;;;;5091150;28;20453;-70
2023/02/23 06:59:48;;;;;;;9.50;4.40;;;8.30;98.00;;;;;;5090640;28;20497;-69
2023/02/23 07:02:15;;;;;;;11.10;4.23;;;8.30;98.00;;;;;;5091016;28;20462;-65
2023/02/23 07:04:43;;;;;;;9.67;4.90;;;8.20;98.00;;;;;;5091017;28;20460;-65
2023/02/23 07:07:12;;;;;;;12.77;4.87;;;8.10;98.00;;;;;;5091031;28;20456;-66
2023/02/23 07:09:41;;;;;;;8.00;4.40;;;8.10;98.00;;;;;;5092277;28;20490;-65
2023/02/23 07:12:09;;;;;;;10.17;5.07;;;8.20;98.00;;;;;;5094834;28;20480;-65
2023/02/23 07:14:37;;;;;;;13.10;4.70;;;8.30;98.00;;;;;;5094714;28;20481;-64
2023/02/23 07:17:04;;;;;;;11.30;4.60;;;8.30;98.00;;;;;;5094813;28;20829;-65
2023/02/23 07:19:32;;;;;;;11.30;5.27;;;8.30;98.00;;;;;;5094727;28;20459;-65
2023/02/23 07:21:59;;;;;;;12.10;4.37;;;8.30;98.00;;;;;;5094738;28;20454;-65
2023/02/23 07:24:28;;;;;;;9.70;4.27;;;8.30;98.00;;;;;;5094703;28;20470;-65
2023/02/23 07:26:56;;;;;;;8.90;4.20;;;8.40;98.00;;;;;;5094652;28;20547;-65
2023/02/23 07:29:24;;;;;;;10.73;4.90;;;8.40;98.00;;;;;;5094567;28;20449;-67
2023/02/23 07:31:51;;;;;;;12.47;5.73;;;8.50;98.00;;;;;;5076654;28;20507;-66
2023/02/23 07:34:19;;;;;;;12.20;5.17;;;8.50;98.00;;;;;;5076401;28;20493;-65
2023/02/23 07:36:46;;;;;;;11.90;4.70;;;8.60;98.00;;;;;;5094281;28;20461;-65
2023/02/23 07:39:13;;;;;;;11.00;5.17;;;8.70;98.00;;;;;;5094331;28;20476;-66
2023/02/23 07:41:40;;;;;;;16.43;5.53;;;8.70;98.00;;;;;;5094504;28;20831;-65
2023/02/23 07:44:08;;;;;;;13.40;5.03;;;8.80;98.00;;;;;;5094416;28;20463;-66
2023/02/23 07:46:36;;;;;;;10.20;4.63;;;8.70;98.00;;;;;;5094240;28;20813;-66
2023/02/23 07:49:03;;;;;;;12.20;4.77;;;8.70;98.00;;;;;;5075479;28;20457;-67
2023/02/23 07:51:31;;;;;;;16.40;5.10;;;8.70;98.00;;;;;;5076653;28;20456;-65
2023/02/23 07:54:03;;;;;;;8.40;5.00;;;8.70;98.00;;;;;;5095118;28;20940;-64
2023/02/23 07:56:30;;;;;;;7.90;5.00;;;8.70;98.00;;;;;;5094182;28;20484;-65
2023/02/23 07:58:59;;;;;;;9.37;5.10;;;8.70;98.00;;;;;;5095156;28;20888;-65
2023/02/23 08:01:28;;;;;;;13.67;5.50;;;8.80;98.00;;;;;;5094094;28;20979;-64
2023/02/23 08:03:55;;;;;;;13.37;4.70;;;8.80;98.00;;;;;;5094008;28;20460;-65
2023/02/23 08:06:23;;;;;;;16.50;5.70;;;8.80;98.00;;;;;;5093834;28;21048;-64
2023/02/23 08:08:50;;;;;;;8.93;4.93;;;8.80;98.00;;;;;;5093909;28;20459;-67
2023/02/23 08:11:17;;;;;;;15.47;5.27;;;8.80;98.00;;;;;;5093695;28;20455;-64
2023/02/23 08:13:44;;;;;;;11.70;5.87;;;8.80;98.00;;;;;;5093842;28;20452;-65
2023/02/23 08:16:11;;;;;;;15.93;5.53;;;8.70;98.00;;;;;;5093613;28;20488;-65
2023/02/23 08:18:40;;;;;;;10.47;4.60;;;8.80;98.00;;;;;;5093704;28;20944;-64
2023/02/23 08:21:07;;;;;;;10.10;5.40;;;8.80;98.00;;;;;;5092587;28;20452;-64
2023/02/23 08:23:34;;;;;;;8.83;5.17;;;8.90;98.00;;;;;;5093749;28;20459;-65
2023/02/23 08:26:02;;;;;;;13.10;6.00;;;9.10;98.00;;;;;;5093736;28;20861;-64
2023/02/23 08:28:30;;;;;;;10.90;5.83;;;9.10;98.00;;;;;;5093440;28;20463;-65
2023/02/23 08:30:59;;;;;;;12.63;5.37;;;9.00;98.00;;;;;;5093511;28;20455;-65
2023/02/23 08:33:26;;;;;;;11.60;5.13;;;8.90;98.00;;;;;;5093165;28;20483;-64
2023/02/23 08:35:58;;;;;;;14.57;6.60;;;8.90;98.00;;;;;;5093411;28;20541;-64
2023/02/23 08:38:26;;;;;;;19.50;6.60;;;8.90;98.00;;;;;;5093200;28;20503;-64
2023/02/23 08:40:53;;;;;;;16.10;6.23;;;9.20;98.00;;;;;;5093202;28;20859;-65
2023/02/23 08:43:21;;;;;;;13.97;6.80;;;9.20;98.00;;;;;;5092973;28;20490;-65
2023/02/23 08:45:48;;;;;;;16.10;6.90;;;9.20;98.00;;;;;;5093204;28;20825;-65
2023/02/23 08:48:15;;;;;;;14.80;6.87;;;9.30;98.00;;;;;;5092842;28;20462;-64
2023/02/23 08:50:43;;;;;;;16.93;6.97;;;9.30;98.00;;;;;;5092950;28;20456;-64
2023/02/23 08:53:12;;;;;;;25.43;5.70;;;9.40;98.00;;;;;;5079307;28;20457;-65
2023/02/23 08:55:39;;;;;;;14.73;7.30;;;9.40;98.00;;;;;;5073072;28;20487;-64
2023/02/23 08:58:09;;;;;;;20.10;7.40;;;9.60;98.00;;;;;;5072997;28;20465;-65
2023/02/23 09:00:37;;;;;;;12.87;6.80;;;9.70;98.00;;;;;;5073341;28;20505;-64
2023/02/23 09:03:05;;;;;;;24.23;7.20;;;9.90;98.00;;;;;;5073165;28;20468;-65
2023/02/23 09:05:34;;;;;;;15.20;6.60;;;9.90;98.00;;;;;;5073248;28;20847;-64
2023/02/23 09:08:01;;;;;;;18.10;7.07;;;9.90;98.00;;;;;;5073067;28;21119;-65
2023/02/23 09:10:29;;;;;;;19.73;8.10;;;10.00;98.00;;;;;;5073187;28;20860;-66
2023/02/23 09:12:56;;;;;;;17.37;7.93;;;10.20;98.00;;;;;;5073085;28;20468;-65
2023/02/23 09:15:23;;;;;;;14.90;6.67;;;10.30;98.00;;;;;;5073070;28;20487;-64
2023/02/23 09:17:51;;;;;;;17.50;6.70;;;10.40;98.00;;;;;;5073090;28;20786;-65
2023/02/23 09:20:18;;;;;;;19.20;7.70;;;10.60;98.00;;;;;;5055221;28;20471;-64
2023/02/23 09:22:48;;;;;;;12.30;6.60;;;10.60;98.00;;;;;;5073105;28;20461;-65
2023/02/23 09:25:17;;;;;;;23.23;8.43;;;10.70;98.00;;;;;;5072882;28;20488;-65
2023/02/23 09:27:45;;;;;;;22.10;7.97;;;10.50;98.00;;;;;;5072905;28;20464;-65
2023/02/23 09:30:16;;;;;;;18.53;6.43;;;10.40;98.00;;;;;;5072695;28;20486;-65
2023/02/23 09:32:44;;;;;;;21.53;8.00;;;10.60;98.00;;;;;;5071184;28;20506;-65
2023/02/23 09:35:11;;;;;;;19.97;7.53;;;10.70;98.00;;;;;;5071238;28;20484;-65
2023/02/23 09:37:38;;;;;;;15.80;6.40;;;10.70;98.00;;;;;;5072482;28;20940;-66
2023/02/23 09:40:07;;;;;;;16.27;7.10;;;10.80;98.00;;;;;;5072173;28;20474;-65
2023/02/23 09:42:40;;;;;;;16.87;7.60;;;10.80;98.00;;;;;;5072184;28;20958;-66
2023/02/23 09:45:20;;;;;;;17.87;6.70;;;10.90;98.00;;;;;;5071107;28;20462;-65
2023/02/23 09:48:05;;;;;;;21.77;7.53;;;10.90;98.00;;;;;;5071980;28;20479;-65
2023/02/23 09:50:35;;;;;;;18.13;7.03;;;10.80;98.00;;;;;;5072291;28;20923;-64
2023/02/23 09:53:05;;;;;;;27.00;8.90;;;10.80;98.00;;;;;;5072135;28;20463;-65
2023/02/23 09:55:34;;;;;;;19.40;8.00;;;10.80;98.00;;;;;;5071977;28;20492;-65
2023/02/23 09:58:08;;;;;;;26.53;8.43;;;11.00;98.00;;;;;;5072040;28;20461;-66
2023/02/23 10:00:45;;;;;;;17.30;6.73;;;11.10;98.00;;;;;;5073000;28;20504;-65
2023/02/23 10:03:21;;;;;;;17.60;7.90;;;11.10;98.00;;;;;;5092233;28;20451;-65
2023/02/23 10:05:53;;;;;;;19.67;6.83;;;11.40;98.00;;;;;;5092185;28;21061;-66
2023/02/23 10:08:38;;;;;;;19.30;6.60;;;11.50;98.00;;;;;;5092217;28;20476;-66
2023/02/23 10:11:13;;;;;;;14.50;5.53;;;11.50;98.00;;;;;;5092442;28;20461;-64
2023/02/23 10:13:52;;;;;;;20.87;6.20;;;11.50;98.00;;;;;;5092092;28;20474;-65
2023/02/23 10:16:26;;;;;;;13.27;5.57;;;11.50;98.00;;;;;;5092238;28;20493;-67
2023/02/23 10:19:00;;;;;;;14.50;5.63;;;11.60;98.00;;;;;;5092266;28;20448;-65
2023/02/23 10:21:34;;;;;;;10.70;5.60;;;11.70;98.00;;;;;;5092322;28;20452;-67
2023/02/23 10:24:05;;;;;;;15.13;7.23;;;11.70;98.00;;;;;;5092285;28;20469;-64
2023/02/23 10:26:39;;;;;;;21.90;6.73;;;11.70;98.00;;;;;;5074317;28;20461;-65
2023/02/23 10:29:21;;;;;;;13.37;5.43;;;11.80;98.00;;;;;;5091758;28;20513;-66
2023/02/23 10:31:54;;;;;;;15.27;5.23;;;11.90;98.00;;;;;;5092077;28;20457;-65
2023/02/23 10:34:21;;;;;;;11.70;5.70;;;12.10;98.00;;;;;;5091869;28;20462;-65
2023/02/23 10:36:53;;;;;;;10.97;5.37;;;12.20;98.00;;;;;;5091581;28;20489;-64
2023/02/23 10:39:20;;;;;;;13.43;5.20;;;12.30;98.00;;;;;;5091582;28;20489;-64
2023/02/23 10:41:47;;;;;;;12.30;5.40;;;12.50;98.00;;;;;;5091683;28;20454;-65
2023/02/23 10:44:19;;;;;;;19.17;6.20;;;12.70;98.00;;;;;;5074750;28;20461;-65
2023/02/23 10:46:54;;;;;;;11.53;5.70;;;12.90;98.00;;;;;;5095648;28;20454;-64
2023/02/23 10:49:28;;;;;;;14.23;5.03;;;13.00;98.00;;;;;;5077795;28;20456;-65
2023/02/23 10:52:01;;;;;;;12.30;5.30;;;13.00;98.00;;;;;;5095911;28;20447;-65
2023/02/23 10:54:42;;;;;;;10.70;4.60;;;13.10;98.00;;;;;;5095706;28;20461;-64
2023/02/23 10:57:15;;;;;;;14.53;4.90;;;13.20;98.00;;;;;;5078809;28;20487;-64
2023/02/23 11:00:25;;;;;;;13.13;4.83;;;13.10;98.00;;;;;;5095660;28;20550;-65
2023/02/23 11:02:57;;;;;;;11.13;4.47;;;13.10;98.00;;;;;;5069782;28;20538;-66
2023/02/23 11:05:44;;;;;;;9.00;4.20;;;13.20;98.00;;;;;;5075380;28;20481;-67
2023/02/23 11:08:19;;;;;;;11.23;4.63;;;13.20;98.00;;;;;;5075366;28;20487;-66
2023/02/23 11:10:59;;;;;;;11.40;4.90;;;13.30;98.00;;;;;;5075350;28;20885;-66
2023/02/23 11:13:28;;;;;;;12.70;4.67;;;13.30;98.00;;;;;;5075246;28;20461;-65
2023/02/23 11:16:01;;;;;;;7.87;3.63;;;13.20;98.00;;;;;;5075048;28;20540;-65
2023/02/23 11:18:30;;;;;;;9.03;3.70;;;13.20;98.00;;;;;;5073900;28;20456;-67
2023/02/23 11:20:59;;;;;;;6.53;3.40;;;13.20;98.00;;;;;;5073940;28;20459;-65
2023/02/23 11:23:28;;;;;;;8.50;4.20;;;13.30;98.00;;;;;;5074993;28;20864;-65
2023/02/23 11:26:00;;;;;;;11.13;5.13;;;13.30;98.00;;;;;;5074937;28;20492;-65
2023/02/23 11:28:31;;;;;;;9.13;3.87;;;13.40;98.00;;;;;;5074908;28;20819;-65
2023/02/23 11:31:02;;;;;;;7.53;3.33;;;13.60;98.00;;;;;;5075009;28;20463;-65
2023/02/23 11:33:34;;;;;;;7.60;3.87;;;13.80;98.00;;;;;;5074411;28;20454;-65
2023/02/23 11:36:25;;;;;;;11.13;4.10;;;13.80;98.00;;;;;;5074483;28;20477;-66
2023/02/23 11:39:03;;;;;;;7.43;3.43;;;13.80;98.00;;;;;;5074645;28;20948;-65
2023/02/23 11:41:34;;;;;;;14.30;4.97;;;13.80;98.00;;;;;;5074648;28;20466;-66
2023/02/23 11:44:02;;;;;;;10.67;4.00;;;13.80;98.00;;;;;;5074553;28;20823;-66
2023/02/23 11:46:33;;;;;;;7.30;3.73;;;13.70;98.00;;;;;;5074358;28;20544;-67
2023/02/23 11:49:05;;;;;;;7.20;3.77;;;13.70;98.00;;;;;;5070655;28;20462;-64
2023/02/23 11:51:34;;;;;;;7.87;3.50;;;13.70;98.00;;;;;;5074547;28;20463;-65
2023/02/23 11:54:02;;;;;;;9.07;4.03;;;13.70;98.00;;;;;;5074378;28;20460;-65
2023/02/23 11:56:32;;;;;;;7.13;3.40;;;13.70;98.00;;;;;;5073279;28;20560;-65
2023/02/23 11:59:02;;;;;;;7.13;3.50;;;13.60;98.00;;;;;;5072351;28;20453;-66
2023/02/23 12:01:40;;;;;;;7.50;3.60;;;13.60;98.00;;;;;;5073419;28;20466;-65
2023/02/23 12:04:12;;;;;;;6.90;3.13;;;13.60;98.00;;;;;;5075569;28;20448;-65
2023/02/23 12:06:41;;;;;;;6.90;3.60;;;13.60;98.00;;;;;;5093680;28;20454;-66
2023/02/23 12:09:18;;;;;;;6.27;3.27;;;13.60;98.00;;;;;;5093515;28;20464;-64
2023/02/23 12:11:49;;;;;;;6.70;3.33;;;13.80;98.00;;;;;;5093715;28;20500;-65
2023/02/23 12:14:27;;;;;;;9.63;3.23;;;13.90;98.00;;;;;;5093754;28;20458;-65
2023/02/23 12:17:00;;;;;;;5.87;3.33;;;13.90;98.00;;;;;;5075727;28;20482;-65
2023/02/23 12:19:33;;;;;;;5.13;3.00;;;13.90;98.00;;;;;;5093541;28;20869;-64
2023/02/23 12:22:05;;;;;;;5.50;2.70;;;14.00;98.00;;;;;;5093654;28;20945;-64
2023/02/23 12:24:43;;;;;;;4.83;3.00;;;13.90;98.00;;;;;;5093302;28;20462;-66
2023/02/23 12:27:15;;;;;;;12.60;2.77;;;14.00;98.00;;;;;;5093260;28;20494;-65
2023/02/23 12:29:55;;;;;;;7.20;3.30;;;14.00;98.00;;;;;;5093195;28;20470;-65
2023/02/23 12:32:27;;;;;;;5.07;2.60;;;14.20;98.00;;;;;;5093202;28;20451;-65
2023/02/23 12:35:01;;;;;;;7.57;2.93;;;14.30;98.00;;;;;;5075378;28;20463;-64
2023/02/23 12:37:38;;;;;;;3.73;2.20;;;14.60;98.00;;;;;;5092866;28;20487;-65
2023/02/23 12:40:15;;;;;;;4.03;2.37;;;14.80;98.00;;;;;;5092798;28;20994;-66
2023/02/23 12:42:49;;;;;;;18.87;2.40;;;15.00;98.00;;;;;;5092947;28;20545;-66
2023/02/23 12:45:23;;;;;;;4.10;2.13;;;15.10;98.00;;;;;;5074119;28;20455;-65
2023/02/23 12:47:59;;;;;;;2.90;2.10;;;15.10;98.00;;;;;;5092970;28;20508;-66
2023/02/23 12:50:32;;;;;;;6.23;2.03;;;15.00;98.00;;;;;;5092589;28;20463;-65
2023/02/23 12:53:11;;;;;;;5.07;2.03;;;15.00;98.00;;;;;;5092819;28;20459;-66
2023/02/23 12:55:50;;;;;;;3.50;1.93;;;14.80;98.00;;;;;;5080249;28;20965;-65
2023/02/23 12:58:28;;;;;;;3.90;1.70;;;14.80;98.00;;;;;;5072475;28;20513;-66
2023/02/23 13:01:00;;;;;;;6.97;2.00;;;14.90;98.00;;;;;;5072399;28;20460;-66
2023/02/23 13:03:55;;;;;;;2.80;1.90;;;14.90;98.00;;;;;;5072291;28;20873;-65
2023/02/23 13:06:34;;;;;;;4.30;2.43;;;14.90;98.00;;;;;;5072124;28;20544;-70
2023/02/23 13:09:16;;;;;;;3.70;2.20;;;14.90;98.00;;;;;;5072336;28;20531;-68
2023/02/23 13:11:57;;;;;;;2.67;1.80;;;15.40;98.00;;;;;;5072519;28;20464;-65
2023/02/23 13:14:32;;;;;;;3.83;2.00;;;15.70;98.00;;;;;;5072261;28;20457;-65
2023/02/23 13:17:06;;;;;;;2.60;1.90;;;15.80;98.00;;;;;;5072315;28;20526;-64
2023/02/23 13:19:41;;;;;;;2.60;1.90;;;15.80;98.00;;;;;;5072627;28;20510;-66
2023/02/23 13:22:27;;;;;;;3.30;2.17;;;15.70;98.00;;;;;;5072380;28;20860;-65
2023/02/23 13:24:57;;;;;;;4.13;2.10;;;15.70;98.00;;;;;;5072079;28;20894;-65
2023/02/23 13:27:30;;;;;;;2.97;2.00;;;15.50;98.00;;;;;;5072065;28;20475;-66
2023/02/23 13:29:58;;;;;;;5.30;2.60;;;15.40;98.00;;;;;;5070802;28;20457;-65
2023/02/23 13:32:30;;;;;;;5.93;2.90;;;15.50;98.00;;;;;;5071734;28;20460;-65
2023/02/23 13:35:00;;;;;;;6.63;2.50;;;15.40;98.00;;;;;;5071636;28;20453;-66
2023/02/23 13:37:35;;;;;;;3.97;2.00;;;15.30;98.00;;;;;;5071709;28;20582;-65
2023/02/23 13:40:17;;;;;;;11.43;2.40;;;15.20;98.00;;;;;;5071817;28;20487;-65
2023/02/23 13:42:55;;;;;;;12.50;2.33;;;15.20;98.00;;;;;;5072328;28;20460;-64
2023/02/23 13:45:50;;;;;;;4.43;2.03;;;15.20;98.00;;;;;;5070584;28;20961;-66
2023/02/23 13:48:28;;;;;;;2.10;1.77;;;15.00;98.00;;;;;;5071729;28;20757;-65
2023/02/23 13:51:00;;;;;;;3.53;2.10;;;14.90;98.00;;;;;;5071347;28;20453;-65
2023/02/23 13:53:58;;;;;;;4.97;2.00;;;14.70;98.00;;;;;;5072573;28;20460;-65
2023/02/23 13:56:28;;;;;;;4.70;2.57;;;14.80;98.00;;;;;;5070833;28;20550;-65
2023/02/23 13:59:00;;;;;;;5.00;2.67;;;14.70;98.00;;;;;;5072442;28;20950;-64
2023/02/23 14:01:31;;;;;;;7.80;3.83;;;14.70;98.00;;;;;;5071830;28;20874;-65
2023/02/23 14:04:01;;;;;;;3.87;2.40;;;14.60;98.00;;;;;;5071386;28;20463;-64
2023/02/23 14:06:31;;;;;;;4.37;2.57;;;14.50;98.00;;;;;;5071655;28;20459;-65
2023/02/23 14:09:07;;;;;;;5.47;2.20;;;14.60;98.00;;;;;;5070218;28;20483;-65
2023/02/23 14:11:52;;;;;;;6.43;2.90;;;14.70;98.00;;;;;;5070766;28;20466;-65
2023/02/23 14:14:42;;;;;;;5.20;2.77;;;14.70;98.00;;;;;;5071396;28;20497;-64
2023/02/23 14:17:37;;;;;;;4.50;2.00;;;14.70;98.00;;;;;;5054167;28;20928;-66
2023/02/23 14:20:14;;;;;;;3.83;2.20;;;14.60;98.00;;;;;;5022962;28;20855;-67
2023/02/23 14:23:13;;;;;;;3.93;2.57;;;14.50;98.00;;;;;;5071439;28;20752;-65
2023/02/23 14:25:50;;;;;;;3.57;2.60;;;14.40;98.00;;;;;;5071471;28;20837;-64
2023/02/23 14:28:29;;;;;;;7.40;2.50;;;14.50;98.00;;;;;;5071252;28;20455;-65
2023/02/23 14:31:03;;;;;;;6.00;2.80;;;14.70;98.00;;;;;;5071338;28;20527;-65